Time;durP1;ratioP1;P1;durP2;ratioP2;P2;SDS_P1;SDS_P2;PMS_P1;PMS_P2;Temp;Humidity;BMP_temperature;BMP_pressure;BME280_temperature;BME280_humidity;BME280_pressure;Samples;Min_cycle;Max_cycle;Signal;HPM_P1;HPM_P2
2023/09/19 00:01:38;;;;;;;6.50;3.60;;;;;;;;;;4993862;28;20544;-77
2023/09/19 00:04:09;;;;;;;5.23;3.37;;;;;;;;;;4993454;28;20225;-79
2023/09/19 00:06:36;;;;;;;6.90;3.40;;;;;;;;;;4993755;28;20236;-78
2023/09/19 00:09:04;;;;;;;7.93;4.00;;;;;;;;;;4994043;28;20224;-76
2023/09/19 00:11:31;;;;;;;6.50;3.30;;;;;;;;;;4993543;28;20276;-78
2023/09/19 00:14:00;;;;;;;6.43;3.73;;;;;;;;;;4993736;28;20208;-78
2023/09/19 00:16:27;;;;;;;7.17;4.03;;;;;;;;;;4992757;28;20799;-76
2023/09/19 00:18:56;;;;;;;8.13;4.23;;;;;;;;;;4993397;28;20198;-78
2023/09/19 00:21:23;;;;;;;7.30;3.83;;;;;;;;;;4993476;28;20284;-78
2023/09/19 00:23:51;;;;;;;7.63;4.03;;;;;;;;;;4993425;28;20598;-79
2023/09/19 00:26:20;;;;;;;7.93;4.10;;;;;;;;;;4993561;28;20206;-78
2023/09/19 00:28:48;;;;;;;7.10;4.30;;;;;;;;;;4992940;28;20202;-78
2023/09/19 00:31:15;;;;;;;7.93;4.43;;;;;;;;;;4993697;28;20737;-78
2023/09/19 00:33:42;;;;;;;7.07;4.30;;;;;;;;;;4993312;28;20333;-78
2023/09/19 00:36:11;;;;;;;6.93;4.43;;;;;;;;;;4993107;28;20200;-77
2023/09/19 00:38:38;;;;;;;5.40;4.27;;;;;;;;;;4993108;28;20233;-78
2023/09/19 00:41:06;;;;;;;6.77;4.60;;;;;;;;;;4992943;28;20240;-78
2023/09/19 00:43:34;;;;;;;7.80;4.33;;;;;;;;;;4993066;28;20194;-78
2023/09/19 00:46:03;;;;;;;7.37;3.90;;;;;;;;;;4993356;28;20680;-77
2023/09/19 00:48:30;;;;;;;7.87;3.30;;;;;;;;;;4992812;28;20245;-78
2023/09/19 00:51:00;;;;;;;7.00;2.87;;;;;;;;;;4992874;28;20579;-78
2023/09/19 00:53:29;;;;;;;9.57;3.00;;;;;;;;;;4992766;28;20206;-78
2023/09/19 00:55:56;;;;;;;7.40;2.77;;;;;;;;;;4992808;28;20230;-78
2023/09/19 00:58:23;;;;;;;7.93;2.83;;;;;;;;;;4992543;28;20226;-78
2023/09/19 01:00:51;;;;;;;7.83;3.00;;;;;;;;;;4992728;28;20236;-76
2023/09/19 01:03:19;;;;;;;7.73;3.17;;;;;;;;;;4992682;28;20328;-77
2023/09/19 01:05:46;;;;;;;7.47;3.20;;;;;;;;;;4992910;28;20756;-78
2023/09/19 01:08:13;;;;;;;9.20;3.07;;;;;;;;;;4992823;28;20241;-77
2023/09/19 01:10:45;;;;;;;6.57;2.40;;;;;;;;;;4992262;28;20193;-78
2023/09/19 01:13:18;;;;;;;5.93;2.70;;;;;;;;;;4992287;28;20226;-79
2023/09/19 01:15:51;;;;;;;4.90;2.57;;;;;;;;;;4992361;28;20209;-77
2023/09/19 01:18:23;;;;;;;6.20;2.33;;;;;;;;;;4992003;28;20229;-78
2023/09/19 01:20:55;;;;;;;6.03;2.60;;;;;;;;;;4992373;28;20650;-77
2023/09/19 01:23:25;;;;;;;6.17;2.40;;;;;;;;;;4992295;28;20225;-77
2023/09/19 01:26:01;;;;;;;6.37;2.03;;;;;;;;;;4992255;28;20638;-78
2023/09/19 01:28:38;;;;;;;5.90;2.60;;;;;;;;;;4991117;28;20368;-77
2023/09/19 01:31:10;;;;;;;7.40;2.33;;;;;;;;;;4992077;28;20193;-77
2023/09/19 01:34:00;;;;;;;5.73;2.40;;;;;;;;;;4992313;28;20198;-78
2023/09/19 01:36:34;;;;;;;6.73;2.33;;;;;;;;;;4992206;28;20198;-77
2023/09/19 01:39:05;;;;;;;8.60;2.57;;;;;;;;;;4991988;28;20230;-77
2023/09/19 01:41:40;;;;;;;6.37;2.37;;;;;;;;;;4991873;28;20233;-77
2023/09/19 01:44:09;;;;;;;5.90;2.17;;;;;;;;;;4991669;28;20763;-79
2023/09/19 01:46:40;;;;;;;7.97;2.20;;;;;;;;;;4992297;28;20225;-77
2023/09/19 01:49:12;;;;;;;10.77;2.17;;;;;;;;;;4992132;28;20218;-77
2023/09/19 01:51:55;;;;;;;7.83;2.10;;;;;;;;;;4991731;28;20202;-77
2023/09/19 01:54:27;;;;;;;6.03;2.20;;;;;;;;;;4991204;28;20202;-78
2023/09/19 01:56:59;;;;;;;8.03;2.60;;;;;;;;;;4991310;28;20325;-78
2023/09/19 01:59:27;;;;;;;8.73;2.10;;;;;;;;;;4991817;28;20198;-77
2023/09/19 02:01:56;;;;;;;8.40;2.50;;;;;;;;;;4991747;28;20198;-77
2023/09/19 02:04:23;;;;;;;9.70;2.40;;;;;;;;;;4991790;28;20687;-77
2023/09/19 02:06:51;;;;;;;7.13;2.33;;;;;;;;;;4991767;28;20229;-78
2023/09/19 02:09:18;;;;;;;9.37;2.47;;;;;;;;;;4985937;28;20202;-77
2023/09/19 02:11:46;;;;;;;12.47;2.00;;;;;;;;;;4980656;28;20293;-77
2023/09/19 02:14:14;;;;;;;7.40;2.30;;;;;;;;;;4972077;28;20198;-78
2023/09/19 02:16:42;;;;;;;9.40;2.10;;;;;;;;;;4972288;28;20194;-77
2023/09/19 02:19:10;;;;;;;7.87;1.90;;;;;;;;;;4990063;28;20272;-77
2023/09/19 02:21:40;;;;;;;8.63;2.40;;;;;;;;;;4991637;28;20293;-78
2023/09/19 02:24:09;;;;;;;8.53;2.10;;;;;;;;;;4991747;28;20245;-78
2023/09/19 02:26:37;;;;;;;4.30;1.70;;;;;;;;;;4991405;28;20233;-77
2023/09/19 02:29:04;;;;;;;7.90;1.87;;;;;;;;;;4991554;28;20208;-78
2023/09/19 02:31:31;;;;;;;7.73;2.27;;;;;;;;;;4991092;28;20198;-78
2023/09/19 02:33:59;;;;;;;6.30;2.23;;;;;;;;;;4991248;28;20230;-77
2023/09/19 02:36:30;;;;;;;5.80;1.90;;;;;;;;;;4991725;28;20225;-77
2023/09/19 02:38:57;;;;;;;9.97;2.40;;;;;;;;;;4991801;28;20579;-78
2023/09/19 02:41:24;;;;;;;7.73;2.67;;;;;;;;;;4995244;28;20673;-78
2023/09/19 02:43:52;;;;;;;5.77;2.20;;;;;;;;;;4995212;28;20268;-78
2023/09/19 02:46:19;;;;;;;8.77;2.20;;;;;;;;;;4995031;28;20297;-78
2023/09/19 02:48:47;;;;;;;7.17;2.40;;;;;;;;;;4995151;28;20301;-78
2023/09/19 02:51:14;;;;;;;10.37;2.53;;;;;;;;;;4995101;28;20197;-78
2023/09/19 02:53:43;;;;;;;9.30;1.90;;;;;;;;;;4995249;28;20284;-77
2023/09/19 02:56:13;;;;;;;8.83;2.27;;;;;;;;;;4995142;28;20288;-79
2023/09/19 02:58:41;;;;;;;7.70;1.93;;;;;;;;;;4994424;28;20652;-76
2023/09/19 03:01:12;;;;;;;11.27;2.27;;;;;;;;;;4994915;28;20240;-78
2023/09/19 03:03:40;;;;;;;14.40;2.70;;;;;;;;;;4995051;28;20307;-76
2023/09/19 03:06:08;;;;;;;10.53;2.33;;;;;;;;;;4994647;28;20198;-77
2023/09/19 03:08:36;;;;;;;7.70;2.27;;;;;;;;;;4994807;28;20205;-79
2023/09/19 03:11:07;;;;;;;7.40;2.20;;;;;;;;;;4994571;28;20551;-78
2023/09/19 03:13:36;;;;;;;8.90;2.33;;;;;;;;;;4995085;28;20206;-78
2023/09/19 03:16:05;;;;;;;8.10;2.17;;;;;;;;;;4994507;28;20202;-77
2023/09/19 03:18:33;;;;;;;13.07;2.13;;;;;;;;;;4994466;28;20384;-78
2023/09/19 03:21:00;;;;;;;8.60;1.90;;;;;;;;;;4994228;28;20193;-78
2023/09/19 03:23:28;;;;;;;7.87;2.10;;;;;;;;;;4994315;28;20190;-77
2023/09/19 03:25:55;;;;;;;9.57;2.20;;;;;;;;;;4995151;28;20206;-78
2023/09/19 03:28:24;;;;;;;7.20;2.30;;;;;;;;;;4994340;28;20252;-77
2023/09/19 03:31:01;;;;;;;9.37;2.70;;;;;;;;;;4994218;28;20681;-78
2023/09/19 03:33:28;;;;;;;7.93;2.00;;;;;;;;;;4994467;28;20680;-77
2023/09/19 03:35:58;;;;;;;8.83;2.33;;;;;;;;;;4994609;28;20202;-77
2023/09/19 03:38:25;;;;;;;7.77;2.17;;;;;;;;;;4993901;28;20271;-77
2023/09/19 03:40:52;;;;;;;7.80;2.10;;;;;;;;;;4994497;28;20202;-79
2023/09/19 03:43:20;;;;;;;10.00;2.60;;;;;;;;;;4994187;28;20202;-78
2023/09/19 03:45:50;;;;;;;10.67;2.47;;;;;;;;;;4993991;28;20256;-78
2023/09/19 03:48:18;;;;;;;6.27;2.00;;;;;;;;;;4993892;28;20198;-77
2023/09/19 03:50:45;;;;;;;12.67;2.70;;;;;;;;;;4991255;28;20198;-78
2023/09/19 03:53:12;;;;;;;7.87;2.23;;;;;;;;;;4978602;28;20298;-77
2023/09/19 03:55:39;;;;;;;7.57;2.23;;;;;;;;;;4989141;28;20224;-79
2023/09/19 03:58:07;;;;;;;11.83;2.43;;;;;;;;;;4993612;28;20229;-77
2023/09/19 04:00:34;;;;;;;11.63;2.50;;;;;;;;;;4994157;28;20194;-76
2023/09/19 04:03:06;;;;;;;8.00;2.30;;;;;;;;;;4990031;28;20277;-78
2023/09/19 04:05:33;;;;;;;9.83;2.47;;;;;;;;;;4974392;28;20233;-76
2023/09/19 04:08:01;;;;;;;8.27;2.50;;;;;;;;;;4973948;28;20225;-78
2023/09/19 04:10:28;;;;;;;11.10;2.13;;;;;;;;;;4993906;28;20202;-78
2023/09/19 04:12:55;;;;;;;10.27;2.13;;;;;;;;;;4993604;28;20288;-77
2023/09/19 04:15:23;;;;;;;9.73;2.20;;;;;;;;;;4993413;28;20217;-78
2023/09/19 04:17:50;;;;;;;9.50;2.30;;;;;;;;;;4993663;28;20232;-78
2023/09/19 04:20:19;;;;;;;15.30;2.70;;;;;;;;;;4991311;28;20215;-78
2023/09/19 04:22:47;;;;;;;12.40;2.40;;;;;;;;;;4973854;28;20198;-77
2023/09/19 04:25:14;;;;;;;6.27;2.00;;;;;;;;;;4974144;28;20195;-78
2023/09/19 04:27:41;;;;;;;9.77;2.23;;;;;;;;;;4974333;28;20218;-77
2023/09/19 04:30:11;;;;;;;12.57;2.50;;;;;;;;;;4974352;28;20221;-78
2023/09/19 04:32:40;;;;;;;11.87;2.60;;;;;;;;;;4974011;28;20194;-77
2023/09/19 04:35:08;;;;;;;8.80;2.10;;;;;;;;;;4973303;28;20205;-79
2023/09/19 04:37:38;;;;;;;7.63;2.03;;;;;;;;;;4973297;28;20232;-78
2023/09/19 04:40:06;;;;;;;10.20;2.30;;;;;;;;;;4974039;28;20589;-80
2023/09/19 04:42:34;;;;;;;7.23;1.90;;;;;;;;;;4973987;28;20672;-80
2023/09/19 04:45:03;;;;;;;7.53;2.40;;;;;;;;;;4973680;28;20669;-79
2023/09/19 04:47:30;;;;;;;8.03;2.10;;;;;;;;;;4973317;28;20677;-79
2023/09/19 04:49:58;;;;;;;10.03;2.20;;;;;;;;;;4973509;28;20629;-79
2023/09/19 04:52:26;;;;;;;8.37;2.20;;;;;;;;;;4973566;28;20198;-79
2023/09/19 04:54:54;;;;;;;10.70;2.47;;;;;;;;;;4973295;28;20700;-77
2023/09/19 04:57:22;;;;;;;9.50;2.43;;;;;;;;;;4973471;28;20579;-80
2023/09/19 04:59:50;;;;;;;10.30;2.63;;;;;;;;;;4973425;28;20195;-81
2023/09/19 05:02:17;;;;;;;10.73;2.07;;;;;;;;;;4973024;28;20614;-79
2023/09/19 05:04:44;;;;;;;10.33;2.40;;;;;;;;;;4973255;28;20261;-80
2023/09/19 05:07:11;;;;;;;10.53;2.30;;;;;;;;;;4973783;28;20222;-80
2023/09/19 05:09:39;;;;;;;8.20;2.13;;;;;;;;;;4973403;28;20201;-82
2023/09/19 05:12:10;;;;;;;11.83;2.50;;;;;;;;;;4973676;28;21032;-81
2023/09/19 05:14:37;;;;;;;11.47;2.37;;;;;;;;;;4973450;28;20206;-81
2023/09/19 05:17:05;;;;;;;9.70;2.00;;;;;;;;;;4975044;28;20210;-82
2023/09/19 05:19:32;;;;;;;11.57;2.77;;;;;;;;;;4992781;28;20802;-82
2023/09/19 05:22:01;;;;;;;9.27;2.30;;;;;;;;;;4992911;28;20206;-82
2023/09/19 05:24:28;;;;;;;8.67;2.63;;;;;;;;;;4992587;28;20673;-81
2023/09/19 05:26:56;;;;;;;16.33;2.47;;;;;;;;;;4992777;28;20193;-80
2023/09/19 05:29:25;;;;;;;9.93;2.33;;;;;;;;;;4992776;28;20202;-80
2023/09/19 05:31:54;;;;;;;9.80;2.40;;;;;;;;;;4992630;28;20194;-81
2023/09/19 05:34:21;;;;;;;10.80;2.77;;;;;;;;;;4991866;28;20252;-82
2023/09/19 05:36:49;;;;;;;10.60;2.33;;;;;;;;;;4992295;28;20237;-82
2023/09/19 05:39:17;;;;;;;10.97;2.10;;;;;;;;;;4992066;28;20238;-78
2023/09/19 05:41:44;;;;;;;10.13;2.37;;;;;;;;;;4992842;28;20204;-84
2023/09/19 05:44:12;;;;;;;11.43;2.70;;;;;;;;;;4992132;28;20228;-83
2023/09/19 05:46:40;;;;;;;11.37;2.47;;;;;;;;;;4991813;28;20198;-79
2023/09/19 05:49:08;;;;;;;10.97;2.37;;;;;;;;;;4992601;28;20305;-83
2023/09/19 05:51:35;;;;;;;9.40;2.13;;;;;;;;;;4992812;28;20268;-81
2023/09/19 05:54:04;;;;;;;13.50;2.73;;;;;;;;;;4992318;28;20320;-83
2023/09/19 05:56:32;;;;;;;13.03;2.80;;;;;;;;;;4992134;28;20565;-82
2023/09/19 05:58:59;;;;;;;11.10;2.60;;;;;;;;;;4992290;28;20240;-83
2023/09/19 06:01:27;;;;;;;10.90;2.53;;;;;;;;;;4991756;28;20300;-83
2023/09/19 06:03:55;;;;;;;11.93;3.10;;;;;;;;;;4991704;28;20679;-83
2023/09/19 06:06:24;;;;;;;12.73;2.80;;;;;;;;;;4992289;28;20280;-83
2023/09/19 06:08:51;;;;;;;10.23;2.50;;;;;;;;;;4991905;28;20254;-82
2023/09/19 06:11:20;;;;;;;9.73;2.60;;;;;;;;;;4992210;28;20214;-83
2023/09/19 06:13:48;;;;;;;11.63;2.57;;;;;;;;;;4991484;28;20201;-83
2023/09/19 06:16:15;;;;;;;13.63;2.87;;;;;;;;;;4992081;28;20209;-83
2023/09/19 06:18:42;;;;;;;10.67;2.10;;;;;;;;;;4991780;28;20788;-84
2023/09/19 06:21:12;;;;;;;12.37;1.93;;;;;;;;;;4992068;28;20270;-83
2023/09/19 06:23:39;;;;;;;9.40;2.33;;;;;;;;;;4992104;28;20206;-83
2023/09/19 06:26:08;;;;;;;9.77;2.53;;;;;;;;;;4991872;28;20777;-84
2023/09/19 06:28:35;;;;;;;11.43;2.57;;;;;;;;;;4992136;28;20213;-84
2023/09/19 06:31:07;;;;;;;8.27;1.90;;;;;;;;;;4992119;28;20221;-83
2023/09/19 06:33:35;;;;;;;12.17;2.43;;;;;;;;;;4992637;28;20577;-84
2023/09/19 06:36:04;;;;;;;11.17;2.50;;;;;;;;;;4992127;28;20286;-84
2023/09/19 06:38:34;;;;;;;8.40;2.50;;;;;;;;;;4991998;28;20280;-83
2023/09/19 06:41:04;;;;;;;9.40;2.37;;;;;;;;;;4992495;28;20198;-84
2023/09/19 06:43:32;;;;;;;12.47;2.33;;;;;;;;;;4991786;28;20206;-83
2023/09/19 06:46:00;;;;;;;9.20;2.03;;;;;;;;;;4974098;28;20201;-84
2023/09/19 06:48:29;;;;;;;11.50;2.30;;;;;;;;;;4990653;28;20203;-83
2023/09/19 06:50:58;;;;;;;12.27;2.50;;;;;;;;;;4989341;28;20296;-83
2023/09/19 06:53:25;;;;;;;10.87;2.80;;;;;;;;;;4988760;28;20220;-83
2023/09/19 06:55:54;;;;;;;8.00;2.40;;;;;;;;;;4634291;28;10000395;-84
2023/09/19 06:58:21;;;;;;;8.23;1.83;;;;;;;;;;4968551;28;20925;-84
2023/09/19 07:00:50;;;;;;;11.13;2.13;;;;;;;;;;4968576;28;20226;-84
2023/09/19 07:03:18;;;;;;;12.07;2.53;;;;;;;;;;4969060;28;20297;-84
2023/09/19 07:05:46;;;;;;;12.63;2.85;;;;;;;;;;4969322;28;20690;-83
2023/09/19 07:08:15;;;;;;;12.20;2.47;;;;;;;;;;4969512;28;20678;-84
2023/09/19 07:10:48;;;;;;;7.70;1.92;;;;;;;;;;4969711;28;20222;-84
2023/09/19 07:13:17;;;;;;;10.80;2.22;;;;;;;;;;4969201;28;20261;-84
2023/09/19 07:15:47;;;;;;;11.30;2.20;;;;;;;;;;4951569;28;20203;-83
2023/09/19 07:18:16;;;;;;;8.43;2.00;;;;;;;;;;4980777;28;20194;-84
2023/09/19 07:20:45;;;;;;;11.73;2.30;;;;;;;;;;4974154;28;20197;-84
2023/09/19 07:23:14;;;;;;;11.85;2.17;;;;;;;;;;4991681;28;20673;-85
2023/09/19 07:25:42;;;;;;;7.78;1.95;;;;;;;;;;4988256;28;20256;-85
2023/09/19 07:28:09;;;;;;;7.57;2.20;;;;;;;;;;4994665;28;20289;-85
2023/09/19 07:30:40;;;;;;;6.75;1.88;;;;;;;;;;4994561;28;20301;-84
2023/09/19 07:33:07;;;;;;;6.85;1.98;;;;;;;;;;5006715;28;20201;-83
2023/09/19 07:35:34;;;;;;;9.63;2.22;;;;;;;;;;4994678;28;20198;-83
2023/09/19 07:38:02;;;;;;;11.45;2.50;;;;;;;;;;4995021;28;20233;-84
2023/09/19 07:40:30;;;;;;;12.18;2.08;;;;;;;;;;4994690;28;21595;-84
2023/09/19 07:43:01;;;;;;;7.40;1.95;;;;;;;;;;4993793;28;20208;-83
2023/09/19 07:45:29;;;;;;;6.93;2.28;;;;;;;;;;4988548;28;20277;-84
2023/09/19 07:48:00;;;;;;;12.15;2.03;;;;;;;;;;4994257;28;20798;-84
2023/09/19 07:50:28;;;;;;;10.80;2.03;;;;;;;;;;4994355;28;20256;-84
2023/09/19 07:52:56;;;;;;;11.15;2.45;;;;;;;;;;4994688;28;20193;-84
2023/09/19 07:55:25;;;;;;;10.18;2.30;;;;;;;;;;4994942;28;20288;-83
2023/09/19 07:57:52;;;;;;;6.82;1.98;;;;;;;;;;4994290;28;20201;-84
2023/09/19 08:00:20;;;;;;;10.52;2.00;;;;;;;;;;4994310;28;20230;-83
2023/09/19 08:02:47;;;;;;;9.10;2.22;;;;;;;;;;4994707;28;20324;-83
2023/09/19 08:05:16;;;;;;;9.77;2.10;;;;;;;;;;4994639;28;20197;-84
2023/09/19 08:07:48;;;;;;;9.18;2.20;;;;;;;;;;4994585;28;20201;-84
2023/09/19 08:10:16;;;;;;;7.50;2.10;;;;;;;;;;4994479;28;20205;-84
2023/09/19 08:12:46;;;;;;;7.88;2.08;;;;;;;;;;4994397;28;20617;-84
2023/09/19 08:15:13;;;;;;;12.70;1.95;;;;;;;;;;4994661;28;20293;-87
2023/09/19 08:17:41;;;;;;;11.88;2.50;;;;;;;;;;4994589;28;20281;-84
2023/09/19 08:20:15;;;;;;;9.02;1.77;;;;;;;;;;4994652;28;20321;-86
2023/09/19 08:22:45;;;;;;;5.30;2.10;;;;;;;;;;4994720;28;20189;-86
2023/09/19 08:25:13;;;;;;;7.55;1.77;;;;;;;;;;4994231;28;20739;-85
2023/09/19 08:27:40;;;;;;;10.27;1.85;;;;;;;;;;4994308;28;20296;-86
2023/09/19 08:30:08;;;;;;;6.55;1.90;;;;;;;;;;4994648;28;20283;-85
2023/09/19 08:32:35;;;;;;;9.73;2.08;;;;;;;;;;4995520;28;20221;-86
2023/09/19 08:35:04;;;;;;;8.15;1.77;;;;;;;;;;4995465;28;20202;-86
2023/09/19 08:37:32;;;;;;;5.78;1.75;;;;;;;;;;4994324;28;20194;-86
2023/09/19 08:40:01;;;;;;;9.73;1.65;;;;;;;;;;4994647;28;20638;-86
2023/09/19 08:42:29;;;;;;;9.73;2.20;;;;;;;;;;4994174;28;20617;-86
2023/09/19 08:45:00;;;;;;;8.60;1.73;;;;;;;;;;4994235;28;20208;-86
2023/09/19 08:47:35;;;;;;;8.15;1.63;;;;;;;;;;4994405;28;20206;-86
2023/09/19 08:50:14;;;;;;;10.45;1.98;;;;;;;;;;4994667;28;20206;-85
2023/09/19 08:52:43;;;;;;;8.82;2.03;;;;;;;;;;4994380;28;20287;-86
2023/09/19 08:55:20;;;;;;;10.75;1.90;;;;;;;;;;4994250;28;20672;-86
2023/09/19 08:57:48;;;;;;;9.73;1.52;;;;;;;;;;4993709;28;20573;-85
2023/09/19 09:00:18;;;;;;;11.20;2.47;;;;;;;;;;4993738;28;20651;-87
2023/09/19 09:02:47;;;;;;;7.85;1.80;;;;;;;;;;4993845;28;20237;-85
2023/09/19 09:05:16;;;;;;;7.10;1.70;;;;;;;;;;4994364;28;20220;-86
2023/09/19 09:07:43;;;;;;;7.53;1.63;;;;;;;;;;4994374;28;20213;-86
2023/09/19 09:10:13;;;;;;;6.95;1.58;;;;;;;;;;4976614;28;20225;-86
2023/09/19 09:12:40;;;;;;;9.77;1.73;;;;;;;;;;4993890;28;20689;-85
2023/09/19 09:15:11;;;;;;;8.35;1.50;;;;;;;;;;4993763;28;20194;-85
2023/09/19 09:17:39;;;;;;;10.60;2.30;;;;;;;;;;4993463;28;20202;-86
2023/09/19 09:20:08;;;;;;;6.85;1.65;;;;;;;;;;4994487;28;20230;-86
2023/09/19 09:22:36;;;;;;;7.88;1.60;;;;;;;;;;4994004;28;20206;-86
2023/09/19 09:25:04;;;;;;;7.70;1.92;;;;;;;;;;4993137;28;20584;-86
2023/09/19 09:27:34;;;;;;;5.28;2.15;;;;;;;;;;4993621;28;20198;-87
2023/09/19 09:30:01;;;;;;;11.05;2.58;;;;;;;;;;4994056;28;20292;-87
2023/09/19 09:32:31;;;;;;;8.13;2.70;;;;;;;;;;4993785;28;20229;-86
2023/09/19 09:34:59;;;;;;;7.95;2.58;;;;;;;;;;4993736;28;20198;-87
2023/09/19 09:37:28;;;;;;;9.73;2.65;;;;;;;;;;4993871;28;20289;-87
2023/09/19 09:39:56;;;;;;;10.35;2.65;;;;;;;;;;4993567;28;20860;-87
2023/09/19 09:42:35;;;;;;;10.18;2.55;;;;;;;;;;4993595;28;20225;-87
2023/09/19 09:45:15;;;;;;;5.63;1.85;;;;;;;;;;4993831;28;20732;-88
2023/09/19 09:47:55;;;;;;;7.07;2.05;;;;;;;;;;4993808;28;20240;-86
2023/09/19 09:50:37;;;;;;;7.65;2.15;;;;;;;;;;4993623;28;20190;-88
2023/09/19 09:53:07;;;;;;;6.75;1.95;;;;;;;;;;4994298;28;20237;-88
2023/09/19 09:55:58;;;;;;;7.30;2.17;;;;;;;;;;4993484;28;20539;-87
2023/09/19 09:58:29;;;;;;;7.18;2.10;;;;;;;;;;4994183;28;20193;-88
2023/09/19 10:01:02;;;;;;;11.13;3.70;;;;;;;;;;4994123;28;20791;-87
2023/09/19 10:03:34;;;;;;;8.95;3.75;;;;;;;;;;4993839;28;20233;-88
2023/09/19 10:06:11;;;;;;;8.10;2.30;;;;;;;;;;4993778;28;20241;-87
2023/09/19 10:08:38;;;;;;;6.88;1.92;;;;;;;;;;4993740;28;20202;-87
2023/09/19 10:11:19;;;;;;;7.82;2.10;;;;;;;;;;4994041;28;20233;-90
2023/09/19 10:13:47;;;;;;;7.18;1.80;;;;;;;;;;4993852;28;20569;-88
2023/09/19 10:16:15;;;;;;;5.65;1.58;;;;;;;;;;4994007;28;20229;-89
2023/09/19 10:18:44;;;;;;;4.55;1.80;;;;;;;;;;4993964;28;20229;-89
2023/09/19 10:21:11;;;;;;;6.82;2.00;;;;;;;;;;4993764;28;20315;-89
2023/09/19 10:23:40;;;;;;;8.90;1.98;;;;;;;;;;4993725;28;20664;-89
2023/09/19 10:26:08;;;;;;;6.38;2.00;;;;;;;;;;4993875;28;20190;-87
2023/09/19 10:28:37;;;;;;;6.15;2.00;;;;;;;;;;4993839;28;20200;-88
2023/09/19 10:31:09;;;;;;;7.50;2.15;;;;;;;;;;4994443;28;20202;-90
2023/09/19 10:33:38;;;;;;;8.15;2.08;;;;;;;;;;4993344;28;20649;-88
2023/09/19 10:36:06;;;;;;;4.90;1.67;;;;;;;;;;4993156;28;20208;-87
2023/09/19 10:38:35;;;;;;;11.32;2.17;;;;;;;;;;4993594;28;20214;-89
2023/09/19 10:41:03;;;;;;;6.68;1.73;;;;;;;;;;4976667;28;20312;-88
2023/09/19 10:43:31;;;;;;;6.88;1.90;;;;;;;;;;4994014;28;20186;-87
2023/09/19 10:46:03;;;;;;;7.75;2.00;;;;;;;;;;4993289;28;20273;-89
2023/09/19 10:48:32;;;;;;;7.88;2.25;;;;;;;;;;4993540;28;20201;-88
2023/09/19 10:51:04;;;;;;;5.80;2.08;;;;;;;;;;4993400;28;20218;-88
2023/09/19 10:53:33;;;;;;;8.52;2.13;;;;;;;;;;4992834;28;20240;-88
2023/09/19 10:56:09;;;;;;;7.15;2.28;;;;;;;;;;4993692;28;20220;-88
2023/09/19 10:58:39;;;;;;;5.72;2.28;;;;;;;;;;4993408;28;20323;-88
2023/09/19 11:01:07;;;;;;;4.72;2.05;;;;;;;;;;4996920;28;20236;-87
2023/09/19 11:03:43;;;;;;;7.05;2.28;;;;;;;;;;4997032;28;20229;-91
2023/09/19 11:06:13;;;;;;;9.40;2.30;;;;;;;;;;4998529;28;20197;-94
2023/09/19 11:09:15;;;;;;;10.48;2.50;;;;;;;;;;4998934;28;20202;-90
2023/09/19 11:11:52;;;;;;;7.93;2.22;;;;;;;;;;4998560;28;20221;-87
2023/09/19 11:14:38;;;;;;;7.25;2.10;;;;;;;;;;4997073;28;20193;-89
2023/09/19 11:17:25;;;;;;;7.25;2.33;;;;;;;;;;4997152;28;20636;-88
2023/09/19 11:20:23;;;;;;;7.30;2.08;;;;;;;;;;4996012;28;20233;-87
2023/09/19 11:23:22;;;;;;;5.63;2.20;;;;;;;;;;4996419;28;20754;-88
2023/09/19 11:25:51;;;;;;;8.18;2.55;;;;;;;;;;4996401;28;20293;-87
2023/09/19 11:28:34;;;;;;;7.78;2.22;;;;;;;;;;4996740;28;20202;-88
2023/09/19 11:31:22;;;;;;;5.78;1.85;;;;;;;;;;4993636;28;20754;-87
2023/09/19 11:33:49;;;;;;;9.80;2.90;;;;;;;;;;4996313;28;20216;-85
2023/09/19 11:36:19;;;;;;;7.25;2.30;;;;;;;;;;4995769;28;20566;-88
2023/09/19 11:39:08;;;;;;;7.05;2.20;;;;;;;;;;4996471;28;20268;-88
2023/09/19 11:41:40;;;;;;;7.88;2.90;;;;;;;;;;4996104;28;20229;-86
2023/09/19 11:44:26;;;;;;;8.45;2.35;;;;;;;;;;4995892;28;20240;-87
2023/09/19 11:46:54;;;;;;;7.15;2.63;;;;;;;;;;4996207;28;20198;-88
2023/09/19 11:49:30;;;;;;;6.40;2.22;;;;;;;;;;4996264;28;20198;-86
2023/09/19 11:51:57;;;;;;;9.82;2.22;;;;;;;;;;4995276;28;20268;-86
2023/09/19 11:54:28;;;;;;;6.95;2.38;;;;;;;;;;4995798;28;20198;-87
2023/09/19 11:56:57;;;;;;;7.68;2.28;;;;;;;;;;4995780;28;20682;-87
2023/09/19 11:59:28;;;;;;;6.78;2.30;;;;;;;;;;4996120;28;20186;-88
2023/09/19 12:01:57;;;;;;;7.70;2.53;;;;;;;;;;4995283;28;20217;-86
2023/09/19 12:04:34;;;;;;;6.65;1.98;;;;;;;;;;4995200;28;20681;-86
2023/09/19 12:07:02;;;;;;;7.72;2.10;;;;;;;;;;4995868;28;20198;-86
2023/09/19 12:09:29;;;;;;;9.05;2.42;;;;;;;;;;4995442;28;20202;-87
2023/09/19 12:11:58;;;;;;;5.47;2.30;;;;;;;;;;4995124;28;20225;-86
2023/09/19 12:14:26;;;;;;;6.18;2.30;;;;;;;;;;4995503;28;20198;-86
2023/09/19 12:16:56;;;;;;;6.15;1.85;;;;;;;;;;4996452;28;20280;-87
2023/09/19 12:19:23;;;;;;;6.35;2.33;;;;;;;;;;4975920;28;20202;-87
2023/09/19 12:21:59;;;;;;;5.25;2.25;;;;;;;;;;4976747;28;20345;-87
2023/09/19 12:24:29;;;;;;;7.30;2.28;;;;;;;;;;4976914;28;20756;-88
2023/09/19 12:27:04;;;;;;;5.57;2.47;;;;;;;;;;4976746;28;20198;-87
2023/09/19 12:29:32;;;;;;;4.13;1.95;;;;;;;;;;4959036;28;20692;-86
2023/09/19 12:32:03;;;;;;;5.75;2.17;;;;;;;;;;4975872;28;20199;-86
2023/09/19 12:34:34;;;;;;;4.88;1.92;;;;;;;;;;4974987;28;20668;-87
2023/09/19 12:37:15;;;;;;;5.88;2.25;;;;;;;;;;4976394;28;20203;-87
2023/09/19 12:39:48;;;;;;;13.00;2.45;;;;;;;;;;4958265;28;20199;-88
2023/09/19 12:42:18;;;;;;;7.63;2.40;;;;;;;;;;4975894;28;20670;-87
2023/09/19 12:44:46;;;;;;;4.03;1.80;;;;;;;;;;4975529;28;20234;-86
2023/09/19 12:47:15;;;;;;;5.90;2.28;;;;;;;;;;4975343;28;20202;-88
2023/09/19 12:50:01;;;;;;;5.70;1.98;;;;;;;;;;4975111;28;20194;-86
2023/09/19 12:52:36;;;;;;;4.57;2.10;;;;;;;;;;4976355;28;20670;-87
2023/09/19 12:55:04;;;;;;;6.13;2.30;;;;;;;;;;4994643;28;20191;-88
2023/09/19 12:57:34;;;;;;;6.93;2.13;;;;;;;;;;4995000;28;20281;-87
2023/09/19 13:00:02;;;;;;;7.45;1.90;;;;;;;;;;4977074;28;20256;-86
2023/09/19 13:02:29;;;;;;;7.15;1.83;;;;;;;;;;4994504;28;20243;-86
2023/09/19 13:05:00;;;;;;;7.47;2.15;;;;;;;;;;4977226;28;20198;-88
2023/09/19 13:07:46;;;;;;;6.32;2.00;;;;;;;;;;4994823;28;20190;-86
2023/09/19 13:10:16;;;;;;;7.82;2.28;;;;;;;;;;4994210;28;20684;-87
2023/09/19 13:12:47;;;;;;;9.63;2.30;;;;;;;;;;4994297;28;20676;-87
2023/09/19 13:15:19;;;;;;;6.32;1.70;;;;;;;;;;4994409;28;20205;-87
2023/09/19 13:17:48;;;;;;;4.55;2.00;;;;;;;;;;4993874;28;20201;-86
2023/09/19 13:20:28;;;;;;;6.90;2.05;;;;;;;;;;4993963;28;20208;-86
2023/09/19 13:22:59;;;;;;;7.07;2.08;;;;;;;;;;4994583;28;20201;-86
2023/09/19 13:25:29;;;;;;;6.15;1.98;;;;;;;;;;4994097;28;20197;-87
2023/09/19 13:27:59;;;;;;;5.97;2.10;;;;;;;;;;4994211;28;20272;-86
2023/09/19 13:30:29;;;;;;;5.82;1.90;;;;;;;;;;4994135;28;20300;-85
2023/09/19 13:33:06;;;;;;;6.20;2.03;;;;;;;;;;4993205;28;20201;-86
2023/09/19 13:35:33;;;;;;;6.07;1.98;;;;;;;;;;4994114;28;20224;-86
2023/09/19 13:38:01;;;;;;;6.30;2.22;;;;;;;;;;4993626;28;20237;-86
2023/09/19 13:40:30;;;;;;;7.20;1.88;;;;;;;;;;4993692;28;20712;-86
2023/09/19 13:42:59;;;;;;;5.43;2.08;;;;;;;;;;4993757;28;20236;-86
2023/09/19 13:45:26;;;;;;;6.20;2.03;;;;;;;;;;4993363;28;20626;-87
2023/09/19 13:47:54;;;;;;;6.90;2.03;;;;;;;;;;4993431;28;20193;-87
2023/09/19 13:50:24;;;;;;;7.60;2.28;;;;;;;;;;4993442;28;20241;-86
2023/09/19 13:52:52;;;;;;;5.38;2.00;;;;;;;;;;4993480;28;20209;-87
2023/09/19 13:55:20;;;;;;;5.05;1.70;;;;;;;;;;4993197;28;20206;-88
2023/09/19 13:57:49;;;;;;;8.43;2.13;;;;;;;;;;4993787;28;20209;-87
2023/09/19 14:00:19;;;;;;;6.50;1.95;;;;;;;;;;4993409;28;20225;-87
2023/09/19 14:02:48;;;;;;;7.38;2.20;;;;;;;;;;4993033;28;20237;-87
2023/09/19 14:05:16;;;;;;;6.97;2.17;;;;;;;;;;4993774;28;20197;-86
2023/09/19 14:07:43;;;;;;;6.05;1.80;;;;;;;;;;4993873;28;20225;-87
2023/09/19 14:10:12;;;;;;;5.72;2.20;;;;;;;;;;4993401;28;20703;-87
2023/09/19 14:12:40;;;;;;;5.30;2.20;;;;;;;;;;4993245;28;20284;-86
2023/09/19 14:15:08;;;;;;;7.45;2.53;;;;;;;;;;4993160;28;20233;-87
2023/09/19 14:17:36;;;;;;;7.05;2.47;;;;;;;;;;4993396;28;20630;-88
2023/09/19 14:20:06;;;;;;;6.30;2.22;;;;;;;;;;4993385;28;20286;-87
2023/09/19 14:22:34;;;;;;;6.43;2.35;;;;;;;;;;4993354;28;20217;-87
2023/09/19 14:25:02;;;;;;;6.88;2.30;;;;;;;;;;4993492;28;20260;-86
2023/09/19 14:27:29;;;;;;;7.40;2.20;;;;;;;;;;4993121;28;20265;-87
2023/09/19 14:29:56;;;;;;;6.07;2.22;;;;;;;;;;4992673;28;20297;-87
2023/09/19 14:32:24;;;;;;;6.38;2.42;;;;;;;;;;4993511;28;20209;-86
2023/09/19 14:34:53;;;;;;;6.70;2.35;;;;;;;;;;4993498;28;20583;-86
2023/09/19 14:37:21;;;;;;;6.95;2.47;;;;;;;;;;4997543;28;20233;-87
2023/09/19 14:39:48;;;;;;;7.63;2.40;;;;;;;;;;4980157;28;20194;-87
2023/09/19 14:42:17;;;;;;;9.48;2.47;;;;;;;;;;4996993;28;20236;-85
2023/09/19 14:44:45;;;;;;;6.60;2.40;;;;;;;;;;4996728;28;20236;-87
2023/09/19 14:47:13;;;;;;;8.32;2.35;;;;;;;;;;4996820;28;20206;-85
2023/09/19 14:49:40;;;;;;;7.55;2.40;;;;;;;;;;4996999;28;20233;-86
2023/09/19 14:52:12;;;;;;;5.70;2.10;;;;;;;;;;4997049;28;20197;-86
2023/09/19 14:54:41;;;;;;;6.25;2.58;;;;;;;;;;4996670;28;20201;-86
2023/09/19 14:57:08;;;;;;;9.55;3.10;;;;;;;;;;4996573;28;20887;-86